sensor_id;sensor_type;location;lat;lon;timestamp;pressure;altitude;pressure_sealevel;temperature;humidity
10466;BME280;5280;42.600;23.556;2023-12-29T00:00:17;94035.75;;;4.18;100.00
10466;BME280;5280;42.600;23.556;2023-12-29T00:02:44;94047.13;;;4.17;100.00
10466;BME280;5280;42.600;23.556;2023-12-29T00:05:11;94055.72;;;4.19;100.00
10466;BME280;5280;42.600;23.556;2023-12-29T00:07:38;94055.81;;;4.18;100.00
10466;BME280;5280;42.600;23.556;2023-12-29T00:10:06;94056.53;;;4.21;100.00
10466;BME280;5280;42.600;23.556;2023-12-29T00:12:33;94048.03;;;4.16;100.00
10466;BME280;5280;42.600;23.556;2023-12-29T00:15:00;94055.72;;;4.19;100.00
10466;BME280;5280;42.600;23.556;2023-12-29T00:17:28;94058.50;;;4.16;100.00
10466;BME280;5280;42.600;23.556;2023-12-29T00:19:55;94059.28;;;4.18;100.00
10466;BME280;5280;42.600;23.556;2023-12-29T00:22:22;94052.34;;;4.17;100.00
10466;BME280;5280;42.600;23.556;2023-12-29T00:24:50;94061.09;;;4.16;100.00
10466;BME280;5280;42.600;23.556;2023-12-29T00:27:17;94054.09;;;4.17;100.00
10466;BME280;5280;42.600;23.556;2023-12-29T00:29:44;94039.84;;;4.04;100.00
10466;BME280;5280;42.600;23.556;2023-12-29T00:32:11;94053.47;;;4.12;100.00
10466;BME280;5280;42.600;23.556;2023-12-29T00:34:39;94045.94;;;4.04;100.00
10466;BME280;5280;42.600;23.556;2023-12-29T00:37:06;94064.88;;;4.09;100.00
10466;BME280;5280;42.600;23.556;2023-12-29T00:39:34;94057.25;;;4.05;100.00
10466;BME280;5280;42.600;23.556;2023-12-29T00:42:04;94053.00;;;4.02;100.00
10466;BME280;5280;42.600;23.556;2023-12-29T00:44:31;94053.97;;;4.00;100.00
10466;BME280;5280;42.600;23.556;2023-12-29T00:46:59;94045.56;;;3.93;100.00
10466;BME280;5280;42.600;23.556;2023-12-29T00:49:26;94032.31;;;3.77;100.00
10466;BME280;5280;42.600;23.556;2023-12-29T00:51:54;94053.94;;;3.81;100.00
10466;BME280;5280;42.600;23.556;2023-12-29T00:54:21;94060.00;;;3.81;100.00
10466;BME280;5280;42.600;23.556;2023-12-29T00:56:48;94026.63;;;3.68;100.00
10466;BME280;5280;42.600;23.556;2023-12-29T00:59:17;93999.28;;;3.55;100.00
10466;BME280;5280;42.600;23.556;2023-12-29T01:01:44;94019.03;;;3.62;100.00
10466;BME280;5280;42.600;23.556;2023-12-29T01:04:12;94038.38;;;3.78;100.00
10466;BME280;5280;42.600;23.556;2023-12-29T01:06:39;94031.56;;;3.74;100.00
10466;BME280;5280;42.600;23.556;2023-12-29T01:09:07;94014.97;;;3.55;100.00
10466;BME280;5280;42.600;23.556;2023-12-29T01:11:36;94032.75;;;3.67;100.00
10466;BME280;5280;42.600;23.556;2023-12-29T01:14:03;94033.63;;;3.67;100.00
10466;BME280;5280;42.600;23.556;2023-12-29T01:16:31;94033.66;;;3.66;100.00
10466;BME280;5280;42.600;23.556;2023-12-29T01:18:58;94038.91;;;3.66;100.00
10466;BME280;5280;42.600;23.556;2023-12-29T01:21:25;94028.97;;;3.54;100.00
10466;BME280;5280;42.600;23.556;2023-12-29T01:23:52;94030.66;;;3.55;100.00
10466;BME280;5280;42.600;23.556;2023-12-29T01:26:20;94039.03;;;3.63;100.00
10466;BME280;5280;42.600;23.556;2023-12-29T01:28:47;94034.72;;;3.62;100.00
10466;BME280;5280;42.600;23.556;2023-12-29T01:31:14;94021.50;;;3.44;100.00
10466;BME280;5280;42.600;23.556;2023-12-29T01:33:41;94043.06;;;3.50;100.00
10466;BME280;5280;42.600;23.556;2023-12-29T01:36:08;94041.38;;;3.49;100.00
10466;BME280;5280;42.600;23.556;2023-12-29T01:38:35;94022.56;;;3.40;100.00
10466;BME280;5280;42.600;23.556;2023-12-29T01:41:02;94015.81;;;3.35;100.00
10466;BME280;5280;42.600;23.556;2023-12-29T01:43:31;94029.22;;;3.47;100.00
10466;BME280;5280;42.600;23.556;2023-12-29T01:45:58;94025.97;;;3.42;100.00
10466;BME280;5280;42.600;23.556;2023-12-29T01:48:25;94020.78;;;3.41;100.00
10466;BME280;5280;42.600;23.556;2023-12-29T01:50:53;94015.63;;;3.39;100.00
10466;BME280;5280;42.600;23.556;2023-12-29T01:53:23;94000.22;;;3.33;100.00
10466;BME280;5280;42.600;23.556;2023-12-29T01:55:51;94006.09;;;3.38;100.00
10466;BME280;5280;42.600;23.556;2023-12-29T01:58:19;94025.97;;;3.42;100.00
10466;BME280;5280;42.600;23.556;2023-12-29T02:00:47;94021.94;;;3.34;100.00
10466;BME280;5280;42.600;23.556;2023-12-29T02:03:15;94021.13;;;3.33;100.00
10466;BME280;5280;42.600;23.556;2023-12-29T02:05:43;94022.78;;;3.34;100.00
10466;BME280;5280;42.600;23.556;2023-12-29T02:08:11;94027.06;;;3.37;100.00
10466;BME280;5280;42.600;23.556;2023-12-29T02:10:38;93997.44;;;3.16;100.00
10466;BME280;5280;42.600;23.556;2023-12-29T02:13:05;93997.50;;;3.15;100.00
10466;BME280;5280;42.600;23.556;2023-12-29T02:15:32;94022.22;;;3.28;100.00
10466;BME280;5280;42.600;23.556;2023-12-29T02:18:02;94028.69;;;3.39;100.00
10466;BME280;5280;42.600;23.556;2023-12-29T02:20:33;94025.34;;;3.36;100.00
10466;BME280;5280;42.600;23.556;2023-12-29T02:23:00;94030.72;;;3.33;100.00
10466;BME280;5280;42.600;23.556;2023-12-29T02:25:29;94007.94;;;3.36;100.00
10466;BME280;5280;42.600;23.556;2023-12-29T02:27:59;94013.28;;;3.33;100.00
10466;BME280;5280;42.600;23.556;2023-12-29T02:30:33;94000.59;;;3.24;100.00
10466;BME280;5280;42.600;23.556;2023-12-29T02:33:05;93986.28;;;3.13;100.00
10466;BME280;5280;42.600;23.556;2023-12-29T02:35:37;93991.84;;;3.25;100.00
10466;BME280;5280;42.600;23.556;2023-12-29T02:38:05;94003.28;;;3.23;100.00
10466;BME280;5280;42.600;23.556;2023-12-29T02:40:35;93997.25;;;3.21;100.00
10466;BME280;5280;42.600;23.556;2023-12-29T02:43:02;93991.97;;;3.22;100.00
10466;BME280;5280;42.600;23.556;2023-12-29T02:45:29;93970.47;;;3.16;100.00
10466;BME280;5280;42.600;23.556;2023-12-29T02:47:56;93976.41;;;3.19;100.00
10466;BME280;5280;42.600;23.556;2023-12-29T02:50:23;93987.72;;;3.20;100.00
10466;BME280;5280;42.600;23.556;2023-12-29T02:52:50;93930.44;;;2.95;100.00
10466;BME280;5280;42.600;23.556;2023-12-29T02:55:17;93979.97;;;3.18;100.00
10466;BME280;5280;42.600;23.556;2023-12-29T02:57:45;93934.25;;;2.88;100.00
10466;BME280;5280;42.600;23.556;2023-12-29T03:00:13;93964.00;;;3.04;100.00
10466;BME280;5280;42.600;23.556;2023-12-29T03:02:40;93960.28;;;3.10;100.00
10466;BME280;5280;42.600;23.556;2023-12-29T03:05:07;93946.91;;;2.97;100.00
10466;BME280;5280;42.600;23.556;2023-12-29T03:07:35;93944.28;;;2.97;100.00
10466;BME280;5280;42.600;23.556;2023-12-29T03:10:02;93933.84;;;2.97;100.00
10466;BME280;5280;42.600;23.556;2023-12-29T03:12:29;93927.97;;;2.92;100.00
10466;BME280;5280;42.600;23.556;2023-12-29T03:14:57;93955.69;;;2.94;100.00
10466;BME280;5280;42.600;23.556;2023-12-29T03:17:24;93949.63;;;2.94;100.00
10466;BME280;5280;42.600;23.556;2023-12-29T03:19:52;93914.50;;;2.81;100.00
10466;BME280;5280;42.600;23.556;2023-12-29T03:22:19;93946.97;;;2.95;100.00
10466;BME280;5280;42.600;23.556;2023-12-29T03:24:46;93931.50;;;2.91;100.00
10466;BME280;5280;42.600;23.556;2023-12-29T03:27:13;93930.88;;;2.84;100.00
10466;BME280;5280;42.600;23.556;2023-12-29T03:29:40;93902.03;;;2.67;100.00
10466;BME280;5280;42.600;23.556;2023-12-29T03:32:08;93916.47;;;2.76;100.00
10466;BME280;5280;42.600;23.556;2023-12-29T03:34:35;93913.59;;;2.82;100.00
10466;BME280;5280;42.600;23.556;2023-12-29T03:37:03;93899.94;;;2.75;100.00
10466;BME280;5280;42.600;23.556;2023-12-29T03:39:30;93903.16;;;2.82;100.00
10466;BME280;5280;42.600;23.556;2023-12-29T03:42:00;93913.34;;;2.88;100.00
10466;BME280;5280;42.600;23.556;2023-12-29T03:44:27;93910.59;;;2.91;100.00
10466;BME280;5280;42.600;23.556;2023-12-29T03:46:54;93883.84;;;2.86;100.00
10466;BME280;5280;42.600;23.556;2023-12-29T03:49:23;93923.03;;;3.06;100.00
10466;BME280;5280;42.600;23.556;2023-12-29T03:51:50;93928.94;;;3.10;100.00
10466;BME280;5280;42.600;23.556;2023-12-29T03:54:17;93880.78;;;2.76;100.00
10466;BME280;5280;42.600;23.556;2023-12-29T03:56:45;93929.69;;;3.13;100.00
10466;BME280;5280;42.600;23.556;2023-12-29T03:59:12;93928.75;;;3.14;100.00
10466;BME280;5280;42.600;23.556;2023-12-29T04:01:39;93919.59;;;3.04;100.00
10466;BME280;5280;42.600;23.556;2023-12-29T04:04:06;93932.41;;;3.10;100.00
10466;BME280;5280;42.600;23.556;2023-12-29T04:06:35;93934.78;;;3.16;100.00
10466;BME280;5280;42.600;23.556;2023-12-29T04:09:02;93942.56;;;3.18;100.00
10466;BME280;5280;42.600;23.556;2023-12-29T04:11:29;93946.06;;;3.17;100.00
10466;BME280;5280;42.600;23.556;2023-12-29T04:13:56;93946.28;;;3.12;100.00
10466;BME280;5280;42.600;23.556;2023-12-29T04:16:23;93943.53;;;3.15;100.00
10466;BME280;5280;42.600;23.556;2023-12-29T04:18:49;93955.63;;;3.18;100.00
10466;BME280;5280;42.600;23.556;2023-12-29T04:21:16;93942.09;;;3.08;100.00
10466;BME280;5280;42.600;23.556;2023-12-29T04:23:45;93950.31;;;3.19;100.00
10466;BME280;5280;42.600;23.556;2023-12-29T04:26:12;93938.44;;;3.12;100.00
10466;BME280;5280;42.600;23.556;2023-12-29T04:28:39;93946.94;;;3.17;100.00
10466;BME280;5280;42.600;23.556;2023-12-29T04:31:06;93941.25;;;3.08;100.00
10466;BME280;5280;42.600;23.556;2023-12-29T04:33:33;93943.78;;;3.09;100.00
10466;BME280;5280;42.600;23.556;2023-12-29T04:36:00;93943.09;;;3.04;100.00
10466;BME280;5280;42.600;23.556;2023-12-29T04:38:27;93949.97;;;3.07;100.00
10466;BME280;5280;42.600;23.556;2023-12-29T04:40:56;93949.97;;;3.07;100.00
10466;BME280;5280;42.600;23.556;2023-12-29T04:43:23;93928.81;;;2.92;100.00
10466;BME280;5280;42.600;23.556;2023-12-29T04:45:50;93950.03;;;3.05;100.00
10466;BME280;5280;42.600;23.556;2023-12-29T04:48:17;93937.38;;;2.96;100.00
10466;BME280;5280;42.600;23.556;2023-12-29T04:50:44;93945.72;;;3.04;100.00
10466;BME280;5280;42.600;23.556;2023-12-29T04:53:11;93940.50;;;3.04;100.00
10466;BME280;5280;42.600;23.556;2023-12-29T04:55:37;93872.00;;;2.57;100.00
10466;BME280;5280;42.600;23.556;2023-12-29T04:58:06;93940.50;;;3.04;100.00
10466;BME280;5280;42.600;23.556;2023-12-29T05:00:33;93840.47;;;2.41;100.00
10466;BME280;5280;42.600;23.556;2023-12-29T05:03:00;93870.38;;;2.54;100.00
10466;BME280;5280;42.600;23.556;2023-12-29T05:05:27;93949.06;;;3.08;100.00
10466;BME280;5280;42.600;23.556;2023-12-29T05:07:53;93948.09;;;3.10;100.00
10466;BME280;5280;42.600;23.556;2023-12-29T05:10:20;93936.94;;;3.07;100.00
10466;BME280;5280;42.600;23.556;2023-12-29T05:12:47;93911.59;;;2.88;100.00
10466;BME280;5280;42.600;23.556;2023-12-29T05:15:16;93937.84;;;3.06;100.00
10466;BME280;5280;42.600;23.556;2023-12-29T05:17:43;93928.44;;;3.01;100.00
10466;BME280;5280;42.600;23.556;2023-12-29T05:20:10;93904.72;;;2.86;100.00
10466;BME280;5280;42.600;23.556;2023-12-29T05:22:38;93921.72;;;2.96;100.00
10466;BME280;5280;42.600;23.556;2023-12-29T05:25:06;93934.63;;;2.99;100.00
10466;BME280;5280;42.600;23.556;2023-12-29T05:27:33;93934.75;;;2.96;100.00
10466;BME280;5280;42.600;23.556;2023-12-29T05:30:01;93920.91;;;2.94;100.00
10466;BME280;5280;42.600;23.556;2023-12-29T05:32:28;93931.34;;;2.94;100.00
10466;BME280;5280;42.600;23.556;2023-12-29T05:34:55;93923.78;;;2.88;100.00
10466;BME280;5280;42.600;23.556;2023-12-29T05:37:22;93935.66;;;2.95;100.00
10466;BME280;5280;42.600;23.556;2023-12-29T05:39:49;93923.84;;;2.86;100.00
10466;BME280;5280;42.600;23.556;2023-12-29T05:42:16;93925.50;;;2.89;100.00
10466;BME280;5280;42.600;23.556;2023-12-29T05:44:43;93888.28;;;2.64;100.00
10466;BME280;5280;42.600;23.556;2023-12-29T05:47:11;93924.03;;;2.82;100.00
10466;BME280;5280;42.600;23.556;2023-12-29T05:49:40;93914.84;;;2.73;100.00
10466;BME280;5280;42.600;23.556;2023-12-29T05:52:07;93952.50;;;2.88;100.00
10466;BME280;5280;42.600;23.556;2023-12-29T05:54:34;93949.84;;;2.68;100.00
10466;BME280;5280;42.600;23.556;2023-12-29T05:57:01;93959.88;;;2.78;100.00
10466;BME280;5280;42.600;23.556;2023-12-29T05:59:28;93961.06;;;2.70;100.00
10466;BME280;5280;42.600;23.556;2023-12-29T06:01:55;93949.19;;;2.63;100.00
10466;BME280;5280;42.600;23.556;2023-12-29T06:04:22;93955.97;;;2.67;100.00
10466;BME280;5280;42.600;23.556;2023-12-29T06:06:50;93962.09;;;2.66;100.00
10466;BME280;5280;42.600;23.556;2023-12-29T06:09:17;93932.88;;;2.57;100.00
10466;BME280;5280;42.600;23.556;2023-12-29T06:11:44;93919.94;;;2.54;100.00
10466;BME280;5280;42.600;23.556;2023-12-29T06:14:11;93930.13;;;2.60;100.00
10466;BME280;5280;42.600;23.556;2023-12-29T06:16:38;93923.28;;;2.58;100.00
10466;BME280;5280;42.600;23.556;2023-12-29T06:19:05;93906.34;;;2.46;100.00
10466;BME280;5280;42.600;23.556;2023-12-29T06:21:32;93889.75;;;2.27;100.00
10466;BME280;5280;42.600;23.556;2023-12-29T06:24:01;93905.81;;;2.38;100.00
10466;BME280;5280;42.600;23.556;2023-12-29T06:26:28;93853.38;;;2.02;100.00
10466;BME280;5280;42.600;23.556;2023-12-29T06:28:55;93916.97;;;2.42;100.00
10466;BME280;5280;42.600;23.556;2023-12-29T06:31:22;93912.72;;;2.39;100.00
10466;BME280;5280;42.600;23.556;2023-12-29T06:33:50;93917.63;;;2.47;100.00
10466;BME280;5280;42.600;23.556;2023-12-29T06:36:17;93914.84;;;2.51;100.00
10466;BME280;5280;42.600;23.556;2023-12-29T06:38:43;93902.13;;;2.44;100.00
10466;BME280;5280;42.600;23.556;2023-12-29T06:41:15;93928.41;;;2.59;100.00
10466;BME280;5280;42.600;23.556;2023-12-29T06:43:42;93928.19;;;2.66;100.00
10466;BME280;5280;42.600;23.556;2023-12-29T06:46:09;93902.47;;;2.56;100.00
10466;BME280;5280;42.600;23.556;2023-12-29T06:48:38;93930.50;;;2.73;100.00
10466;BME280;5280;42.600;23.556;2023-12-29T06:51:05;93929.56;;;2.74;100.00
10466;BME280;5280;42.600;23.556;2023-12-29T06:53:32;93930.78;;;2.66;100.00
10466;BME280;5280;42.600;23.556;2023-12-29T06:55:58;93938.03;;;2.79;100.00
10466;BME280;5280;42.600;23.556;2023-12-29T06:58:27;93908.88;;;2.70;100.00
10466;BME280;5280;42.600;23.556;2023-12-29T07:00:54;93932.72;;;2.82;100.00
10466;BME280;5280;42.600;23.556;2023-12-29T07:03:21;93934.53;;;2.80;100.00
10466;BME280;5280;42.600;23.556;2023-12-29T07:05:48;93942.25;;;2.83;100.00
10466;BME280;5280;42.600;23.556;2023-12-29T07:08:15;93892.16;;;2.53;100.00
10466;BME280;5280;42.600;23.556;2023-12-29T07:10:42;93934.16;;;2.89;100.00
10466;BME280;5280;42.600;23.556;2023-12-29T07:13:09;93907.06;;;2.72;100.00
10466;BME280;5280;42.600;23.556;2023-12-29T07:15:37;93875.78;;;2.50;100.00
10466;BME280;5280;42.600;23.556;2023-12-29T07:18:04;93939.97;;;2.96;100.00
10466;BME280;5280;42.600;23.556;2023-12-29T07:20:31;93939.06;;;2.97;100.00
10466;BME280;5280;42.600;23.556;2023-12-29T07:22:59;93940.50;;;3.04;100.00
10466;BME280;5280;42.600;23.556;2023-12-29T07:25:26;93939.69;;;3.03;100.00
10466;BME280;5280;42.600;23.556;2023-12-29T07:27:53;93931.75;;;3.05;100.00
10466;BME280;5280;42.600;23.556;2023-12-29T07:30:21;93928.25;;;3.06;100.00
10466;BME280;5280;42.600;23.556;2023-12-29T07:32:49;93914.28;;;3.07;100.00
10466;BME280;5280;42.600;23.556;2023-12-29T07:35:16;93924.78;;;3.06;100.00
10466;BME280;5280;42.600;23.556;2023-12-29T07:37:45;93908.34;;;3.03;100.00
10466;BME280;5280;42.600;23.556;2023-12-29T07:40:13;93899.91;;;2.97;100.00
10466;BME280;5280;42.600;23.556;2023-12-29T07:42:41;93928.09;;;3.09;100.00
10466;BME280;5280;42.600;23.556;2023-12-29T07:45:09;93936.13;;;3.04;100.00
10466;BME280;5280;42.600;23.556;2023-12-29T07:47:36;93867.69;;;2.56;100.00
10466;BME280;5280;42.600;23.556;2023-12-29T07:50:04;93945.56;;;3.09;100.00
10466;BME280;5280;42.600;23.556;2023-12-29T07:52:32;93938.44;;;3.12;100.00
10466;BME280;5280;42.600;23.556;2023-12-29T07:54:59;93935.78;;;3.14;100.00
10466;BME280;5280;42.600;23.556;2023-12-29T07:57:25;93930.53;;;3.14;100.00
10466;BME280;5280;42.600;23.556;2023-12-29T07:59:53;93913.81;;;2.97;100.00
10466;BME280;5280;42.600;23.556;2023-12-29T08:02:19;93933.16;;;3.14;100.00
10466;BME280;5280;42.600;23.556;2023-12-29T08:04:46;93923.63;;;3.13;100.00
10466;BME280;5280;42.600;23.556;2023-12-29T08:07:15;93923.47;;;3.16;100.00
10466;BME280;5280;42.600;23.556;2023-12-29T08:09:42;93903.63;;;3.12;100.00
10466;BME280;5280;42.600;23.556;2023-12-29T08:12:09;93896.91;;;3.06;100.00
10466;BME280;5280;42.600;23.556;2023-12-29T08:14:36;93917.16;;;3.21;100.00
10466;BME280;5280;42.600;23.556;2023-12-29T08:17:03;93933.63;;;3.23;100.00
10466;BME280;5280;42.600;23.556;2023-12-29T08:19:30;93943.06;;;3.26;100.00
10466;BME280;5280;42.600;23.556;2023-12-29T08:21:57;93939.09;;;3.17;100.00
10466;BME280;5280;42.600;23.556;2023-12-29T08:24:25;93953.31;;;3.30;100.00
10466;BME280;5280;42.600;23.556;2023-12-29T08:26:52;93949.66;;;3.34;100.00
10466;BME280;5280;42.600;23.556;2023-12-29T08:29:19;93928.00;;;3.32;100.00
10466;BME280;5280;42.600;23.556;2023-12-29T08:31:46;93945.72;;;3.44;100.00
10466;BME280;5280;42.600;23.556;2023-12-29T08:34:13;93935.16;;;3.47;100.00
10466;BME280;5280;42.600;23.556;2023-12-29T08:36:40;93943.38;;;3.59;100.00
10466;BME280;5280;42.600;23.556;2023-12-29T08:39:07;93934.78;;;3.57;100.00
10466;BME280;5280;42.600;23.556;2023-12-29T08:41:36;93862.06;;;3.07;100.00
10466;BME280;5280;42.600;23.556;2023-12-29T08:44:03;93943.66;;;3.53;100.00
10466;BME280;5280;42.600;23.556;2023-12-29T08:46:30;93955.25;;;3.66;100.00
10466;BME280;5280;42.600;23.556;2023-12-29T08:48:58;93957.63;;;3.72;100.00
10466;BME280;5280;42.600;23.556;2023-12-29T08:51:26;93964.47;;;3.74;100.00
10466;BME280;5280;42.600;23.556;2023-12-29T08:53:54;93885.97;;;3.18;100.00
10466;BME280;5280;42.600;23.556;2023-12-29T08:56:21;93957.25;;;3.79;100.00
10466;BME280;5280;42.600;23.556;2023-12-29T08:58:49;93964.78;;;3.87;100.00
10466;BME280;5280;42.600;23.556;2023-12-29T09:01:16;93954.97;;;3.92;100.00
10466;BME280;5280;42.600;23.556;2023-12-29T09:03:43;93931.78;;;3.84;100.00
10466;BME280;5280;42.600;23.556;2023-12-29T09:06:10;93931.66;;;3.87;100.00
10466;BME280;5280;42.600;23.556;2023-12-29T09:08:37;93939.84;;;3.99;100.00
10466;BME280;5280;42.600;23.556;2023-12-29T09:11:04;93913.94;;;3.74;100.00
10466;BME280;5280;42.600;23.556;2023-12-29T09:13:31;93929.19;;;4.03;100.00
10466;BME280;5280;42.600;23.556;2023-12-29T09:15:59;93935.06;;;4.08;100.00
10466;BME280;5280;42.600;23.556;2023-12-29T09:18:26;93945.16;;;4.16;100.00
10466;BME280;5280;42.600;23.556;2023-12-29T09:20:53;93937.81;;;4.24;100.00
10466;BME280;5280;42.600;23.556;2023-12-29T09:23:20;93946.06;;;4.33;100.00
10466;BME280;5280;42.600;23.556;2023-12-29T09:25:47;93923.31;;;4.36;100.00
10466;BME280;5280;42.600;23.556;2023-12-29T09:28:14;93921.09;;;4.45;100.00
10466;BME280;5280;42.600;23.556;2023-12-29T09:30:41;93927.31;;;4.61;100.00
10466;BME280;5280;42.600;23.556;2023-12-29T09:33:09;93934.88;;;4.67;100.00
10466;BME280;5280;42.600;23.556;2023-12-29T09:35:38;93928.41;;;4.74;100.00
10466;BME280;5280;42.600;23.556;2023-12-29T09:38:05;93919.47;;;4.78;100.00
10466;BME280;5280;42.600;23.556;2023-12-29T09:40:31;93925.97;;;4.89;100.00
10466;BME280;5280;42.600;23.556;2023-12-29T09:43:00;93919.47;;;4.97;100.00
10466;BME280;5280;42.600;23.556;2023-12-29T09:45:30;93907.91;;;5.01;100.00
10466;BME280;5280;42.600;23.556;2023-12-29T09:48:01;93897.97;;;5.08;100.00
10466;BME280;5280;42.600;23.556;2023-12-29T09:50:31;93896.03;;;5.11;100.00
10466;BME280;5280;42.600;23.556;2023-12-29T09:53:00;93896.88;;;5.29;100.00
10466;BME280;5280;42.600;23.556;2023-12-29T09:55:28;93892.97;;;5.38;100.00
10466;BME280;5280;42.600;23.556;2023-12-29T09:57:57;93886.69;;;5.40;100.00
10466;BME280;5280;42.600;23.556;2023-12-29T10:00:25;93876.88;;;5.44;100.00
10466;BME280;5280;42.600;23.556;2023-12-29T10:02:54;93831.16;;;5.16;100.00
10466;BME280;5280;42.600;23.556;2023-12-29T10:05:21;93872.44;;;5.46;100.00
10466;BME280;5280;42.600;23.556;2023-12-29T10:07:50;93872.13;;;5.52;100.00
10466;BME280;5280;42.600;23.556;2023-12-29T10:10:18;93885.91;;;5.55;100.00
10466;BME280;5280;42.600;23.556;2023-12-29T10:12:48;93875.09;;;5.61;100.00
10466;BME280;5280;42.600;23.556;2023-12-29T10:15:20;93858.84;;;5.55;100.00
10466;BME280;5280;42.600;23.556;2023-12-29T10:17:52;93846.34;;;5.60;100.00
10466;BME280;5280;42.600;23.556;2023-12-29T10:20:36;93854.13;;;5.61;100.00
10466;BME280;5280;42.600;23.556;2023-12-29T10:23:10;93866.81;;;5.69;100.00
10466;BME280;5280;42.600;23.556;2023-12-29T10:25:38;93857.84;;;5.73;100.00
10466;BME280;5280;42.600;23.556;2023-12-29T10:28:06;93831.28;;;5.63;100.00
10466;BME280;5280;42.600;23.556;2023-12-29T10:30:35;93800.22;;;5.40;100.00
10466;BME280;5280;42.600;23.556;2023-12-29T10:33:03;93841.56;;;5.84;100.00
10466;BME280;5280;42.600;23.556;2023-12-29T10:35:30;93828.63;;;5.81;100.00
10466;BME280;5280;42.600;23.556;2023-12-29T10:38:09;93842.13;;;5.90;100.00
10466;BME280;5280;42.600;23.556;2023-12-29T10:40:37;93818.06;;;5.82;100.00
10466;BME280;5280;42.600;23.556;2023-12-29T10:43:04;93832.75;;;6.02;100.00
10466;BME280;5280;42.600;23.556;2023-12-29T10:45:33;93812.34;;;5.91;100.00
10466;BME280;5280;42.600;23.556;2023-12-29T10:48:00;93822.75;;;6.09;100.00
10466;BME280;5280;42.600;23.556;2023-12-29T10:50:28;93804.63;;;5.88;100.00
10466;BME280;5280;42.600;23.556;2023-12-29T10:53:14;93820.22;;;6.07;100.00
10466;BME280;5280;42.600;23.556;2023-12-29T10:55:42;93812.94;;;6.12;100.00
10466;BME280;5280;42.600;23.556;2023-12-29T10:58:09;93807.44;;;6.17;100.00
10466;BME280;5280;42.600;23.556;2023-12-29T11:00:36;93811.38;;;6.24;100.00
10466;BME280;5280;42.600;23.556;2023-12-29T11:03:04;93802.06;;;6.34;100.00
10466;BME280;5280;42.600;23.556;2023-12-29T11:05:32;93801.81;;;6.38;100.00
10466;BME280;5280;42.600;23.556;2023-12-29T11:07:59;93804.94;;;6.45;100.00
10466;BME280;5280;42.600;23.556;2023-12-29T11:10:29;93793.19;;;6.52;100.00
10466;BME280;5280;42.600;23.556;2023-12-29T11:12:57;93789.31;;;6.58;100.00
10466;BME280;5280;42.600;23.556;2023-12-29T11:15:25;93761.28;;;6.58;100.00
10466;BME280;5280;42.600;23.556;2023-12-29T11:17:56;93780.84;;;6.68;100.00
10466;BME280;5280;42.600;23.556;2023-12-29T11:20:24;93779.47;;;6.77;100.00
10466;BME280;5280;42.600;23.556;2023-12-29T11:22:51;93742.91;;;6.58;100.00
10466;BME280;5280;42.600;23.556;2023-12-29T11:25:19;93773.69;;;6.86;100.00
10466;BME280;5280;42.600;23.556;2023-12-29T11:27:48;93775.84;;;6.93;100.00
10466;BME280;5280;42.600;23.556;2023-12-29T11:30:15;93750.69;;;6.89;100.00
10466;BME280;5280;42.600;23.556;2023-12-29T11:32:47;93774.00;;;7.10;100.00
10466;BME280;5280;42.600;23.556;2023-12-29T11:35:19;93714.38;;;6.82;100.00
10466;BME280;5280;42.600;23.556;2023-12-29T11:38:11;93754.47;;;7.14;100.00
10466;BME280;5280;42.600;23.556;2023-12-29T11:40:42;93754.41;;;7.15;100.00
10466;BME280;5280;42.600;23.556;2023-12-29T11:43:15;93763.13;;;7.30;100.00
10466;BME280;5280;42.600;23.556;2023-12-29T11:45:43;93757.97;;;7.28;100.00
10466;BME280;5280;42.600;23.556;2023-12-29T11:48:10;93752.69;;;7.28;100.00
10466;BME280;5280;42.600;23.556;2023-12-29T11:50:39;93714.22;;;7.13;100.00
10466;BME280;5280;42.600;23.556;2023-12-29T11:53:07;93753.75;;;7.40;100.00
10466;BME280;5280;42.600;23.556;2023-12-29T11:55:35;93757.50;;;7.36;100.00
10466;BME280;5280;42.600;23.556;2023-12-29T11:58:04;93735.16;;;7.29;100.00
10466;BME280;5280;42.600;23.556;2023-12-29T12:00:46;93744.25;;;7.38;100.00
10466;BME280;5280;42.600;23.556;2023-12-29T12:03:14;93742.31;;;7.41;100.00
10466;BME280;5280;42.600;23.556;2023-12-29T12:05:45;93736.66;;;7.33;100.00
10466;BME280;5280;42.600;23.556;2023-12-29T12:08:27;93746.63;;;7.42;100.00
10466;BME280;5280;42.600;23.556;2023-12-29T12:10:55;93743.03;;;7.43;100.00
10466;BME280;5280;42.600;23.556;2023-12-29T12:13:43;93741.72;;;7.50;100.00
10466;BME280;5280;42.600;23.556;2023-12-29T12:16:49;93733.47;;;7.56;100.00
10466;BME280;5280;42.600;23.556;2023-12-29T12:19:20;93737.03;;;7.55;100.00
10466;BME280;5280;42.600;23.556;2023-12-29T12:21:51;93741.91;;;7.61;100.00
10466;BME280;5280;42.600;23.556;2023-12-29T12:24:20;93722.19;;;7.54;100.00
10466;BME280;5280;42.600;23.556;2023-12-29T12:26:47;93723.97;;;7.54;100.00
10466;BME280;5280;42.600;23.556;2023-12-29T12:29:14;93735.59;;;7.64;100.00
10466;BME280;5280;42.600;23.556;2023-12-29T12:31:56;93731.84;;;7.68;100.00
10466;BME280;5280;42.600;23.556;2023-12-29T12:34:23;93730.34;;;7.64;100.00
10466;BME280;5280;42.600;23.556;2023-12-29T12:36:52;93731.28;;;7.63;100.00
10466;BME280;5280;42.600;23.556;2023-12-29T12:39:22;93727.34;;;7.70;100.00
10466;BME280;5280;42.600;23.556;2023-12-29T12:41:50;93699.31;;;7.42;100.00
10466;BME280;5280;42.600;23.556;2023-12-29T12:44:17;93709.25;;;7.51;100.00
10466;BME280;5280;42.600;23.556;2023-12-29T12:46:53;93742.84;;;7.74;100.00
10466;BME280;5280;42.600;23.556;2023-12-29T12:49:24;93734.72;;;7.77;100.00
10466;BME280;5280;42.600;23.556;2023-12-29T12:51:51;93749.00;;;7.88;100.00
10466;BME280;5280;42.600;23.556;2023-12-29T12:54:19;93749.22;;;7.85;100.00
10466;BME280;5280;42.600;23.556;2023-12-29T12:56:47;93749.41;;;7.82;100.00
10466;BME280;5280;42.600;23.556;2023-12-29T12:59:14;93747.34;;;7.87;100.00
10466;BME280;5280;42.600;23.556;2023-12-29T13:01:42;93730.59;;;7.88;100.00
10466;BME280;5280;42.600;23.556;2023-12-29T13:04:11;93753.56;;;8.12;100.00